OAL463 LGAV-EGLL
Flight info
| Callsign | OAL463 |
|---|---|
| Flight time | N/A |
| Altitude | 32000 |
| Route | KOR UL53 IPTES DCT DIMIS DCT VAKSU DCT ROTAR DCT BORMI DCT RESIA DCT ELMUR L613 HOC DCT LUL DCT RLP DCT ROTSI DCT KOTUN DCT NINAL DCT ABNUR DCT DIMAL DCT ALESO |
| Aircraft | B77L/H-SDE1E2E3FGHIJ2J3J4J5M1RWXY/LB1D1 |
Departure
| Time | 2026-05-05 07:31 |
|---|---|
| Airport | Athens Eleftherios Venizelos International Airport (LGAV) |
Arrival
| Time | N/A |
|---|---|
| Airport | London Heathrow Airport (EGLL) |
| Time | Latitude | Longitude | Altitude | Speed | Heading |
|---|---|---|---|---|---|
| 2026-05-05 07:31 | 37.94311 | 23.97423 | 16786 ft | 336 kts | 250° |
| 2026-05-05 07:31 | 37.93430 | 23.94659 | 17377 ft | 341 kts | 249° |
| 2026-05-05 07:32 | 37.92515 | 23.91795 | 17539 ft | 360 kts | 249° |
| 2026-05-05 07:32 | 37.91561 | 23.88820 | 17701 ft | 378 kts | 249° |
| 2026-05-05 07:32 | 37.90555 | 23.85688 | 18081 ft | 389 kts | 249° |
| 2026-05-05 07:32 | 37.89525 | 23.82479 | 18595 ft | 395 kts | 250° |
| 2026-05-05 07:33 | 37.88831 | 23.79124 | 19019 ft | 397 kts | 269° |
| 2026-05-05 07:33 | 37.89001 | 23.75650 | 19526 ft | 397 kts | 277° |
| 2026-05-05 07:33 | 37.89252 | 23.72146 | 20090 ft | 401 kts | 276° |
| 2026-05-05 07:33 | 37.89459 | 23.68619 | 20737 ft | 404 kts | 275° |
| 2026-05-05 07:34 | 37.89648 | 23.65061 | 21348 ft | 406 kts | 275° |
| 2026-05-05 07:34 | 37.89769 | 23.62688 | 21724 ft | 409 kts | 275° |
| 2026-05-05 07:34 | 37.89948 | 23.59080 | 22262 ft | 413 kts | 275° |
| 2026-05-05 07:34 | 37.90126 | 23.55441 | 22801 ft | 416 kts | 275° |
| 2026-05-05 07:35 | 37.90305 | 23.51769 | 23344 ft | 419 kts | 275° |
| 2026-05-05 07:35 | 37.90483 | 23.48080 | 23885 ft | 423 kts | 275° |
| 2026-05-05 07:35 | 37.90663 | 23.44352 | 24423 ft | 425 kts | 275° |
| 2026-05-05 07:35 | 37.90844 | 23.40601 | 24955 ft | 428 kts | 275° |
| 2026-05-05 07:36 | 37.91083 | 23.35541 | 25649 ft | 431 kts | 275° |
| 2026-05-05 07:36 | 37.91202 | 23.33033 | 25977 ft | 433 kts | 275° |
| 2026-05-05 07:36 | 37.91383 | 23.29195 | 26484 ft | 435 kts | 275° |
| 2026-05-05 07:36 | 37.91563 | 23.25361 | 26954 ft | 438 kts | 275° |
| 2026-05-05 07:37 | 37.91743 | 23.21496 | 27418 ft | 440 kts | 275° |
| 2026-05-05 07:37 | 37.91920 | 23.17662 | 27877 ft | 442 kts | 275° |
| 2026-05-05 07:37 | 37.92098 | 23.13768 | 28330 ft | 445 kts | 275° |
| 2026-05-05 07:37 | 37.92277 | 23.09842 | 28763 ft | 447 kts | 275° |
| 2026-05-05 07:38 | 37.92454 | 23.05907 | 29208 ft | 449 kts | 275° |
| 2026-05-05 07:38 | 37.92631 | 23.01961 | 29628 ft | 451 kts | 275° |
| 2026-05-05 07:38 | 37.92808 | 22.97986 | 30048 ft | 453 kts | 275° |
| 2026-05-05 07:38 | 37.92881 | 22.96648 | 30162 ft | 450 kts | 278° |
| 2026-05-05 07:39 | 37.94524 | 22.90445 | 30590 ft | 451 kts | 306° |
| 2026-05-05 07:39 | 37.96396 | 22.87275 | 30909 ft | 450 kts | 308° |
| 2026-05-05 07:39 | 37.98257 | 22.84069 | 31228 ft | 453 kts | 306° |
| 2026-05-05 07:39 | 38.00083 | 22.80795 | 31567 ft | 454 kts | 306° |
| 2026-05-05 07:40 | 38.01885 | 22.77501 | 31898 ft | 455 kts | 306° |
| 2026-05-05 07:40 | 38.03694 | 22.74189 | 32155 ft | 458 kts | 306° |
| 2026-05-05 07:40 | 38.05518 | 22.70862 | 32398 ft | 460 kts | 306° |
| 2026-05-05 07:40 | 38.07350 | 22.67523 | 32670 ft | 461 kts | 306° |
| 2026-05-05 07:41 | 38.09164 | 22.64215 | 32944 ft | 462 kts | 306° |
| 2026-05-05 07:41 | 38.10999 | 22.60868 | 33205 ft | 463 kts | 306° |
| 2026-05-05 07:41 | 38.12844 | 22.57497 | 33438 ft | 464 kts | 306° |
| 2026-05-05 07:41 | 38.14685 | 22.54130 | 33638 ft | 466 kts | 306° |
| 2026-05-05 07:42 | 38.16534 | 22.50742 | 33837 ft | 467 kts | 306° |
| 2026-05-05 07:42 | 38.18388 | 22.47345 | 34008 ft | 468 kts | 306° |
| 2026-05-05 07:42 | 38.22119 | 22.40495 | 34114 ft | 470 kts | 306° |
| 2026-05-05 07:43 | 38.25758 | 22.33793 | 34112 ft | 452 kts | 306° |
| 2026-05-05 07:43 | 38.29322 | 22.27226 | 34129 ft | 450 kts | 306° |
| 2026-05-05 07:44 | 38.32883 | 22.20649 | 34140 ft | 450 kts | 306° |
| 2026-05-05 07:44 | 38.36443 | 22.14069 | 34134 ft | 451 kts | 306° |
| 2026-05-05 07:45 | 38.40002 | 22.07472 | 34140 ft | 452 kts | 306° |
| 2026-05-05 07:45 | 38.43567 | 22.00852 | 34143 ft | 452 kts | 305° |
| 2026-05-05 07:46 | 38.47123 | 21.94235 | 34142 ft | 452 kts | 306° |
| 2026-05-05 07:46 | 38.50664 | 21.87624 | 34161 ft | 451 kts | 306° |
| 2026-05-05 07:47 | 38.54212 | 21.81009 | 34148 ft | 451 kts | 305° |
| 2026-05-05 07:47 | 38.57752 | 21.74361 | 34146 ft | 452 kts | 305° |
| 2026-05-05 07:48 | 38.59522 | 21.71035 | 34144 ft | 452 kts | 305° |
| 2026-05-05 07:48 | 38.65030 | 21.60652 | 34152 ft | 451 kts | 305° |
| 2026-05-05 07:49 | 38.68562 | 21.54003 | 34153 ft | 451 kts | 307° |
| 2026-05-05 07:49 | 38.72926 | 21.48300 | 34157 ft | 449 kts | 322° |
| 2026-05-05 07:50 | 38.78248 | 21.44161 | 34166 ft | 450 kts | 333° |
| 2026-05-05 07:50 | 38.82928 | 21.41211 | 34153 ft | 450 kts | 333° |
| 2026-05-05 07:51 | 38.89505 | 21.37048 | 34155 ft | 451 kts | 333° |
| 2026-05-05 07:51 | 38.95075 | 21.33469 | 34161 ft | 451 kts | 333° |
| 2026-05-05 07:52 | 39.00684 | 21.29837 | 34168 ft | 452 kts | 333° |
| 2026-05-05 07:52 | 39.06296 | 21.26192 | 34168 ft | 452 kts | 333° |
| 2026-05-05 07:53 | 39.10995 | 21.23137 | 34167 ft | 452 kts | 333° |
| 2026-05-05 07:53 | 39.17529 | 21.18882 | 34169 ft | 452 kts | 333° |
| 2026-05-05 07:54 | 39.23147 | 21.15218 | 34165 ft | 452 kts | 333° |
| 2026-05-05 07:54 | 39.28760 | 21.11550 | 34172 ft | 452 kts | 333° |
| 2026-05-05 07:55 | 39.29709 | 21.10929 | 34174 ft | 452 kts | 333° |
| 2026-05-05 07:55 | 39.39254 | 21.04671 | 34174 ft | 452 kts | 333° |
| 2026-05-05 07:56 | 39.44867 | 21.00985 | 34171 ft | 452 kts | 333° |
| 2026-05-05 07:56 | 39.50478 | 20.97292 | 34179 ft | 452 kts | 333° |
| 2026-05-05 07:57 | 39.55174 | 20.94194 | 34180 ft | 452 kts | 333° |
| 2026-05-05 07:57 | 39.62407 | 20.89416 | 34183 ft | 452 kts | 332° |
| 2026-05-05 07:58 | 39.68026 | 20.85697 | 34184 ft | 452 kts | 332° |
| 2026-05-05 07:58 | 39.73632 | 20.81978 | 34185 ft | 453 kts | 332° |
| 2026-05-05 07:59 | 39.78297 | 20.78878 | 34186 ft | 453 kts | 332° |
| 2026-05-05 07:59 | 39.83907 | 20.75145 | 34184 ft | 453 kts | 332° |
| 2026-05-05 08:00 | 39.90441 | 20.70789 | 34181 ft | 453 kts | 332° |
| 2026-05-05 08:00 | 39.96060 | 20.67034 | 34175 ft | 454 kts | 332° |
| 2026-05-05 08:01 | 39.99777 | 20.64546 | 34177 ft | 454 kts | 332° |
| 2026-05-05 08:02 | 40.11664 | 20.55145 | 34154 ft | 454 kts | 321° |
| 2026-05-05 08:02 | 40.16598 | 20.50004 | 34171 ft | 454 kts | 321° |
| 2026-05-05 08:03 | 40.21551 | 20.44865 | 34172 ft | 455 kts | 321° |
| 2026-05-05 08:03 | 40.26514 | 20.39737 | 34164 ft | 455 kts | 321° |
| 2026-05-05 08:04 | 40.31496 | 20.34588 | 34170 ft | 456 kts | 321° |
| 2026-05-05 08:04 | 40.36474 | 20.29436 | 34163 ft | 456 kts | 321° |
| 2026-05-05 08:05 | 40.41455 | 20.24264 | 34163 ft | 456 kts | 321° |